createdAt,value
2018-07-12T00:00:32.825Z,14.17
2018-07-12T00:05:35.021Z,7.80
2018-07-12T00:10:37.213Z,11.03
2018-07-12T00:15:39.647Z,13.63
2018-07-12T00:20:41.840Z,9.37
2018-07-12T00:25:44.037Z,7.47
2018-07-12T00:30:46.212Z,7.83
2018-07-12T00:35:48.431Z,18.93
2018-07-12T00:40:50.647Z,14.53
2018-07-12T00:45:52.857Z,17.70
2018-07-12T00:50:55.057Z,7.73
2018-07-12T00:55:57.243Z,11.03
2018-07-12T01:00:59.436Z,16.97
2018-07-12T01:06:01.613Z,20.47
2018-07-12T01:11:03.808Z,14.93
2018-07-12T01:16:06.006Z,14.40
2018-07-12T01:21:08.206Z,20.10
2018-07-12T01:26:10.399Z,11.07
2018-07-12T01:31:12.592Z,21.20
2018-07-12T01:36:14.810Z,13.07
2018-07-12T01:41:16.980Z,9.47
2018-07-12T01:46:19.180Z,13.20
2018-07-12T01:51:21.377Z,8.90
2018-07-12T01:56:23.564Z,20.03
2018-07-12T02:01:25.752Z,17.87
2018-07-12T02:06:27.939Z,23.20
2018-07-12T02:11:30.380Z,15.97
2018-07-12T02:16:32.823Z,16.37
2018-07-12T02:21:35.017Z,14.47
2018-07-12T02:26:37.224Z,22.07
2018-07-12T02:31:39.427Z,21.27
2018-07-12T02:36:41.858Z,20.80
2018-07-12T02:41:44.050Z,17.60
2018-07-12T02:46:46.224Z,12.93
2018-07-12T02:51:48.687Z,12.67
2018-07-12T02:56:51.135Z,17.47
2018-07-12T03:01:53.343Z,22.03
2018-07-12T03:06:55.514Z,19.17
2018-07-12T03:11:57.700Z,21.23
2018-07-12T03:16:59.896Z,23.57
2018-07-12T03:22:02.059Z,19.83
2018-07-12T03:27:04.231Z,16.73
2018-07-12T03:32:06.404Z,22.90
2018-07-12T03:37:08.591Z,26.33
2018-07-12T03:42:10.778Z,17.07
2018-07-12T03:47:12.978Z,25.23
2018-07-12T03:52:15.155Z,25.00
2018-07-12T03:57:17.340Z,26.83
2018-07-12T04:02:19.820Z,17.70
2018-07-12T04:07:22.017Z,20.87
2018-07-12T04:12:24.199Z,24.07
2018-07-12T04:17:29.894Z,21.70
2018-07-12T04:22:33.256Z,19.20
2018-07-12T04:27:35.439Z,20.67
2018-07-12T04:32:37.620Z,26.43
2018-07-12T04:37:40.148Z,26.07
2018-07-12T04:42:42.288Z,17.70
2018-07-12T04:47:44.455Z,15.87
2018-07-12T04:52:46.627Z,25.20
2018-07-12T04:57:48.812Z,25.00
2018-07-12T05:02:51.263Z,19.33
2018-07-12T05:07:53.440Z,25.97
2018-07-12T05:12:55.647Z,32.23
2018-07-12T05:17:57.831Z,23.50
2018-07-12T05:23:00.025Z,23.93
2018-07-12T05:28:02.205Z,24.37
2018-07-12T05:33:04.387Z,25.23
2018-07-12T05:38:07.499Z,26.03
2018-07-12T05:43:10.603Z,30.60
2018-07-12T05:48:13.945Z,29.00
2018-07-12T05:53:18.339Z,30.83
2018-07-12T05:58:21.553Z,29.27
2018-07-12T06:03:24.698Z,26.33
2018-07-12T06:08:27.811Z,26.23
2018-07-12T06:13:30.911Z,33.50
2018-07-12T06:18:34.078Z,31.00
2018-07-12T06:23:37.264Z,33.07
2018-07-12T06:28:40.399Z,35.83
2018-07-12T06:33:43.519Z,34.70
2018-07-12T06:38:47.298Z,32.37
2018-07-12T06:43:57.097Z,30.40
2018-07-12T06:49:00.293Z,33.63
2018-07-12T06:54:03.363Z,38.63
2018-07-12T06:59:06.471Z,34.37
2018-07-12T07:04:09.557Z,33.93
2018-07-12T07:09:12.682Z,27.20
2018-07-12T07:14:15.899Z,24.87
2018-07-12T07:19:19.027Z,24.73
2018-07-12T07:24:22.203Z,23.20
2018-07-12T07:29:25.358Z,21.53
2018-07-12T07:34:28.531Z,22.90
2018-07-12T07:39:32.147Z,18.70
2018-07-12T07:44:35.036Z,15.97
2018-07-12T07:49:38.160Z,12.63
2018-07-12T07:54:41.276Z,17.40
2018-07-12T07:59:44.578Z,12.17
2018-07-12T08:04:47.731Z,11.10
2018-07-12T08:09:50.871Z,12.00
2018-07-12T08:14:53.959Z,15.33
2018-07-12T08:19:57.067Z,12.40
2018-07-12T08:25:00.175Z,10.03
2018-07-12T08:30:03.359Z,10.53
2018-07-12T08:35:06.435Z,13.10
2018-07-12T08:40:09.531Z,8.33
2018-07-12T08:45:12.667Z,12.53
2018-07-12T08:50:15.886Z,7.10
2018-07-12T08:55:19.105Z,7.43
2018-07-12T09:00:22.240Z,7.03
2018-07-12T09:05:25.489Z,10.70
2018-07-12T09:10:28.590Z,12.57
2018-07-12T09:15:31.670Z,7.60
2018-07-12T09:20:34.787Z,10.00
2018-07-12T09:25:37.924Z,9.43
2018-07-12T09:30:41.064Z,7.63
2018-07-12T09:35:44.171Z,8.27
2018-07-12T09:40:47.295Z,6.27
2018-07-12T09:45:50.459Z,6.20
2018-07-12T09:50:53.599Z,7.03
2018-07-12T09:55:56.690Z,6.10
2018-07-12T10:01:05.195Z,8.37
2018-07-12T10:06:13.709Z,6.20
2018-07-12T10:11:22.127Z,7.23
2018-07-12T10:16:30.647Z,7.83
2018-07-12T10:21:33.534Z,9.33
2018-07-12T10:26:36.630Z,7.40
2018-07-12T10:31:39.780Z,4.47
2018-07-12T10:36:42.890Z,5.70
2018-07-12T10:41:46.076Z,6.90
2018-07-12T10:46:49.194Z,7.70
2018-07-12T10:51:52.361Z,4.37
2018-07-12T10:56:55.246Z,5.27
2018-07-12T11:01:58.356Z,4.37
2018-07-12T11:07:01.476Z,6.70
2018-07-12T11:12:04.640Z,4.03
2018-07-12T11:17:07.728Z,5.27
2018-07-12T11:22:10.836Z,5.07
2018-07-12T11:27:13.957Z,4.67
2018-07-12T11:32:17.102Z,4.60
2018-07-12T11:37:25.187Z,3.70
2018-07-12T11:42:28.327Z,10.93
2018-07-12T11:47:31.419Z,4.60
2018-07-12T11:52:34.637Z,4.53
2018-07-12T11:57:37.731Z,4.37
2018-07-12T12:02:40.918Z,4.10
2018-07-12T12:07:44.008Z,3.80
2018-07-12T12:12:47.161Z,6.23
2018-07-12T12:17:50.271Z,3.30
2018-07-12T12:22:53.465Z,5.93
2018-07-12T12:27:57.091Z,4.63
2018-07-12T12:33:00.284Z,7.33
2018-07-12T12:38:03.362Z,4.70
2018-07-12T12:43:06.545Z,7.03
2018-07-12T12:48:09.639Z,4.60
2018-07-12T12:53:12.772Z,3.83
2018-07-12T12:58:16.544Z,4.17
2018-07-12T13:03:19.699Z,6.30
2018-07-12T13:08:22.839Z,7.00
2018-07-12T13:13:26.003Z,5.33
2018-07-12T13:18:29.140Z,7.43
2018-07-12T13:23:32.260Z,6.10
2018-07-12T13:28:35.509Z,5.17
2018-07-12T13:33:38.598Z,3.73
2018-07-12T13:38:41.727Z,4.43
2018-07-12T13:43:44.819Z,3.70
2018-07-12T13:48:47.932Z,3.30
2018-07-12T13:53:51.035Z,3.50
2018-07-12T13:58:54.200Z,3.87
2018-07-12T14:03:57.296Z,4.67
2018-07-12T14:09:00.428Z,3.70
2018-07-12T14:14:03.766Z,5.97
2018-07-12T14:19:06.944Z,3.93
2018-07-12T14:24:10.021Z,3.50
2018-07-12T14:29:12.890Z,3.80
2018-07-12T14:34:15.979Z,3.40
2018-07-12T14:39:19.086Z,3.83
2018-07-12T14:44:22.191Z,5.63
2018-07-12T14:49:25.391Z,9.50
2018-07-12T14:54:28.590Z,7.43
2018-07-12T14:59:31.695Z,3.10
2018-07-12T15:04:34.812Z,7.60
2018-07-12T15:09:37.919Z,8.23
2018-07-12T15:14:41.047Z,4.77
2018-07-12T15:19:44.177Z,4.73
2018-07-12T15:24:47.379Z,7.30
2018-07-12T15:29:50.488Z,4.80
2018-07-12T15:34:53.616Z,4.53
2018-07-12T15:39:57.814Z,5.57
2018-07-12T15:45:00.775Z,5.67
2018-07-12T15:50:03.668Z,4.80
2018-07-12T15:55:07.307Z,4.57
2018-07-12T16:00:10.480Z,3.97
2018-07-12T16:05:13.688Z,4.50
2018-07-12T16:10:16.801Z,3.83
2018-07-12T16:15:19.899Z,5.67
2018-07-12T16:20:23.067Z,4.30
2018-07-12T16:25:26.199Z,3.80
2018-07-12T16:30:29.230Z,3.03
2018-07-12T16:35:32.421Z,5.23
2018-07-12T16:40:35.519Z,6.13
2018-07-12T16:45:38.640Z,7.47
2018-07-12T16:50:41.823Z,4.10
2018-07-12T16:55:44.950Z,4.60
2018-07-12T17:00:48.132Z,6.60
2018-07-12T17:05:51.251Z,5.40
2018-07-12T17:10:54.966Z,4.60
2018-07-12T17:15:58.115Z,5.10
2018-07-12T17:21:01.263Z,3.60
2018-07-12T17:26:04.432Z,3.33
2018-07-12T17:31:07.527Z,4.13
2018-07-12T17:36:10.644Z,5.20
2018-07-12T17:41:13.845Z,5.00
2018-07-12T17:46:17.823Z,8.57
2018-07-12T17:51:20.984Z,5.77
2018-07-12T17:56:24.092Z,5.30
2018-07-12T18:01:27.203Z,3.50
2018-07-12T18:06:30.303Z,3.83
2018-07-12T18:11:33.620Z,4.20
2018-07-12T18:16:36.711Z,3.50
2018-07-12T18:21:39.847Z,5.77
2018-07-12T18:26:42.955Z,7.43
2018-07-12T18:31:46.081Z,6.40
2018-07-12T18:36:49.180Z,4.30
2018-07-12T18:41:52.299Z,3.83
2018-07-12T18:46:55.487Z,5.63
2018-07-12T18:52:00.769Z,6.00
2018-07-12T18:57:03.907Z,4.63
2018-07-12T19:02:07.006Z,5.30
2018-07-12T19:07:10.110Z,6.00
2018-07-12T19:12:13.211Z,4.47
2018-07-12T19:17:16.303Z,4.57
2018-07-12T19:22:19.183Z,7.43
2018-07-12T19:27:22.296Z,7.87
2018-07-12T19:32:25.396Z,10.17
2018-07-12T19:37:28.512Z,3.83
2018-07-12T19:42:31.616Z,4.27
2018-07-12T19:47:34.687Z,3.97
2018-07-12T19:52:37.783Z,9.43
2018-07-12T19:57:40.908Z,6.80
2018-07-12T20:02:44.007Z,5.00
2018-07-12T20:07:47.143Z,3.40
2018-07-12T20:12:50.248Z,4.37
2018-07-12T20:17:54.050Z,3.93
2018-07-12T20:22:57.240Z,7.30
2018-07-12T20:28:00.322Z,4.43
2018-07-12T20:33:03.479Z,5.53
2018-07-12T20:38:06.587Z,4.30
2018-07-12T20:43:14.871Z,8.27
2018-07-12T20:48:18.200Z,15.80
2018-07-12T20:53:21.283Z,12.60
2018-07-12T20:58:24.450Z,7.93
2018-07-12T21:03:27.640Z,12.10
2018-07-12T21:08:30.747Z,6.80
2018-07-12T21:13:34.110Z,10.87
2018-07-12T21:18:37.215Z,12.50
2018-07-12T21:23:40.351Z,11.00
2018-07-12T21:28:43.455Z,12.10
2018-07-12T21:33:46.548Z,10.43
2018-07-12T21:38:49.662Z,16.13
2018-07-12T21:43:52.758Z,13.80
2018-07-12T21:48:55.853Z,10.33
2018-07-12T21:53:59.162Z,12.03
2018-07-12T22:04:11.843Z,14.53
2018-07-12T22:09:14.969Z,13.10
2018-07-12T22:14:18.081Z,13.70
2018-07-12T22:19:21.187Z,8.80
2018-07-12T22:24:24.084Z,11.33
2018-07-12T22:29:27.202Z,17.80
2018-07-12T22:34:30.312Z,12.53
2018-07-12T22:39:33.406Z,14.77
2018-07-12T22:44:37.307Z,14.60
2018-07-12T22:49:40.439Z,14.30
2018-07-12T22:54:43.327Z,17.03
2018-07-12T22:59:46.419Z,14.30
2018-07-12T23:04:49.568Z,23.17
2018-07-12T23:09:52.746Z,13.63
2018-07-12T23:14:55.965Z,17.23
2018-07-12T23:19:59.091Z,13.00
2018-07-12T23:25:01.971Z,13.80
2018-07-12T23:30:05.206Z,24.23
2018-07-12T23:35:08.340Z,16.33
2018-07-12T23:40:11.449Z,16.43
2018-07-12T23:45:14.571Z,12.37
2018-07-12T23:50:17.656Z,19.77
2018-07-12T23:55:20.760Z,16.13
